sensor_id;sensor_type;location;lat;lon;timestamp;pressure;altitude;pressure_sealevel;temperature;humidity
56084;BME280;41958;52.416;13.428;2023-02-16T00:00:06;101728.22;;;-0.54;100.00
56084;BME280;41958;52.416;13.428;2023-02-16T00:02:31;101748.66;;;-0.45;100.00
56084;BME280;41958;52.416;13.428;2023-02-16T00:04:56;101754.16;;;-0.45;100.00
56084;BME280;41958;52.416;13.428;2023-02-16T00:07:22;101749.78;;;-0.46;100.00
56084;BME280;41958;52.416;13.428;2023-02-16T00:09:47;101747.28;;;-0.47;100.00
56084;BME280;41958;52.416;13.428;2023-02-16T00:12:18;101756.00;;;-0.51;100.00
56084;BME280;41958;52.416;13.428;2023-02-16T00:15:19;101761.00;;;-0.47;100.00
56084;BME280;41958;52.416;13.428;2023-02-16T00:17:45;101756.34;;;-0.47;100.00
56084;BME280;41958;52.416;13.428;2023-02-16T00:20:17;101760.75;;;-0.46;100.00
56084;BME280;41958;52.416;13.428;2023-02-16T00:22:43;101754.16;;;-0.45;100.00
56084;BME280;41958;52.416;13.428;2023-02-16T00:25:08;101750.59;;;-0.45;100.00
56084;BME280;41958;52.416;13.428;2023-02-16T00:27:34;101751.19;;;-0.43;100.00
56084;BME280;41958;52.416;13.428;2023-02-16T00:29:59;101749.78;;;-0.46;100.00
56084;BME280;41958;52.416;13.428;2023-02-16T00:32:25;101745.34;;;-0.47;100.00
56084;BME280;41958;52.416;13.428;2023-02-16T00:34:50;101753.06;;;-0.44;100.00
56084;BME280;41958;52.416;13.428;2023-02-16T00:37:16;101756.09;;;-0.45;100.00
56084;BME280;41958;52.416;13.428;2023-02-16T00:39:42;101758.00;;;-0.46;100.00
56084;BME280;41958;52.416;13.428;2023-02-16T00:42:16;101753.00;;;-0.49;100.00
56084;BME280;41958;52.416;13.428;2023-02-16T00:44:44;101751.59;;;-0.52;100.00
56084;BME280;41958;52.416;13.428;2023-02-16T00:49:41;101748.34;;;-0.48;100.00
56084;BME280;41958;52.416;13.428;2023-02-16T00:52:36;101751.09;;;-0.48;100.00
56084;BME280;41958;52.416;13.428;2023-02-16T00:55:07;101744.75;;;-0.49;100.00
56084;BME280;41958;52.416;13.428;2023-02-16T00:57:36;101749.78;;;-0.46;100.00
56084;BME280;41958;52.416;13.428;2023-02-16T01:00:27;101743.50;;;-0.41;100.00
56084;BME280;41958;52.416;13.428;2023-02-16T01:02:56;101750.09;;;-0.42;100.00
56084;BME280;41958;52.416;13.428;2023-02-16T01:05:22;101762.66;;;-0.46;100.00
56084;BME280;41958;52.416;13.428;2023-02-16T01:07:48;101749.50;;;-0.44;100.00
56084;BME280;41958;52.416;13.428;2023-02-16T01:10:33;101755.00;;;-0.44;100.00
56084;BME280;41958;52.416;13.428;2023-02-16T01:13:17;101740.94;;;-0.48;100.00
56084;BME280;41958;52.416;13.428;2023-02-16T01:15:43;101738.94;;;-0.53;100.00
56084;BME280;41958;52.416;13.428;2023-02-16T01:18:12;101741.44;;;-0.51;100.00
56084;BME280;41958;52.416;13.428;2023-02-16T01:20:38;101733.22;;;-0.51;100.00
56084;BME280;41958;52.416;13.428;2023-02-16T01:23:03;101740.69;;;-0.46;100.00
56084;BME280;41958;52.416;13.428;2023-02-16T01:25:28;101741.28;;;-0.44;100.00
56084;BME280;41958;52.416;13.428;2023-02-16T01:27:54;101735.44;;;-0.48;100.00
56084;BME280;41958;52.416;13.428;2023-02-16T01:30:21;101736.78;;;-0.51;100.00
56084;BME280;41958;52.416;13.428;2023-02-16T01:32:47;101738.69;;;-0.51;100.00
56084;BME280;41958;52.416;13.428;2023-02-16T01:35:27;101737.03;;;-0.52;100.00
56084;BME280;41958;52.416;13.428;2023-02-16T01:37:53;101730.13;;;-0.55;100.00
56084;BME280;41958;52.416;13.428;2023-02-16T01:43:09;101733.13;;;-0.56;100.00
56084;BME280;41958;52.416;13.428;2023-02-16T01:45:40;101733.13;;;-0.56;100.00
56084;BME280;41958;52.416;13.428;2023-02-16T01:48:19;101733.94;;;-0.56;100.00
56084;BME280;41958;52.416;13.428;2023-02-16T01:51:06;101725.72;;;-0.56;100.00
56084;BME280;41958;52.416;13.428;2023-02-16T01:53:41;101723.91;;;-0.50;100.00
56084;BME280;41958;52.416;13.428;2023-02-16T01:56:18;101723.56;;;-0.54;100.00
56084;BME280;41958;52.416;13.428;2023-02-16T01:58:48;101719.13;;;-0.55;100.00
56084;BME280;41958;52.416;13.428;2023-02-16T02:01:34;101713.34;;;-0.58;100.00
56084;BME280;41958;52.416;13.428;2023-02-16T02:04:02;101721.56;;;-0.58;100.00
56084;BME280;41958;52.416;13.428;2023-02-16T02:06:51;101724.53;;;-0.60;100.00
56084;BME280;41958;52.416;13.428;2023-02-16T02:09:24;101718.22;;;-0.60;100.00
56084;BME280;41958;52.416;13.428;2023-02-16T02:14:32;101719.00;;;-0.65;100.00
56084;BME280;41958;52.416;13.428;2023-02-16T02:17:06;101719.22;;;-0.66;100.00
56084;BME280;41958;52.416;13.428;2023-02-16T02:20:05;101713.25;;;-0.63;100.00
56084;BME280;41958;52.416;13.428;2023-02-16T02:23:10;101710.41;;;-0.69;100.00
56084;BME280;41958;52.416;13.428;2023-02-16T02:28:51;101717.50;;;-0.73;100.00
56084;BME280;41958;52.416;13.428;2023-02-16T02:31:42;101711.41;;;-0.75;100.00
56084;BME280;41958;52.416;13.428;2023-02-16T02:37:10;101706.16;;;-0.76;100.00
56084;BME280;41958;52.416;13.428;2023-02-16T02:42:24;101702.84;;;-0.78;100.00
56084;BME280;41958;52.416;13.428;2023-02-16T02:44:56;101703.94;;;-0.79;100.00
56084;BME280;41958;52.416;13.428;2023-02-16T02:47:55;101699.78;;;-0.82;100.00
56084;BME280;41958;52.416;13.428;2023-02-16T02:53:08;101706.84;;;-0.86;100.00
56084;BME280;41958;52.416;13.428;2023-02-16T02:55:40;101703.84;;;-0.85;100.00
56084;BME280;41958;52.416;13.428;2023-02-16T02:58:26;101695.88;;;-0.86;100.00
56084;BME280;41958;52.416;13.428;2023-02-16T03:01:11;101695.03;;;-0.87;100.00
56084;BME280;41958;52.416;13.428;2023-02-16T03:03:42;101684.53;;;-0.90;100.00
56084;BME280;41958;52.416;13.428;2023-02-16T03:06:18;101687.06;;;-0.88;100.00
56084;BME280;41958;52.416;13.428;2023-02-16T03:08:48;101684.78;;;-0.91;100.00
56084;BME280;41958;52.416;13.428;2023-02-16T03:11:18;101685.06;;;-0.93;100.00
56084;BME280;41958;52.416;13.428;2023-02-16T03:14:06;101686.13;;;-0.94;100.00
56084;BME280;41958;52.416;13.428;2023-02-16T03:16:39;101684.22;;;-0.93;100.00
56084;BME280;41958;52.416;13.428;2023-02-16T03:19:07;101681.75;;;-0.95;100.00
56084;BME280;41958;52.416;13.428;2023-02-16T03:21:54;101685.47;;;-0.84;100.00
56084;BME280;41958;52.416;13.428;2023-02-16T03:24:39;101680.06;;;-0.79;100.00
56084;BME280;41958;52.416;13.428;2023-02-16T03:27:26;101696.03;;;-0.76;100.00
56084;BME280;41958;52.416;13.428;2023-02-16T03:30:12;101688.88;;;-0.77;100.00
56084;BME280;41958;52.416;13.428;2023-02-16T03:32:39;101685.06;;;-0.76;100.00
56084;BME280;41958;52.416;13.428;2023-02-16T03:35:08;101683.47;;;-0.72;100.00
56084;BME280;41958;52.416;13.428;2023-02-16T03:37:37;101686.28;;;-0.66;100.00
56084;BME280;41958;52.416;13.428;2023-02-16T03:40:04;101693.44;;;-0.65;100.00
56084;BME280;41958;52.416;13.428;2023-02-16T03:42:50;101688.47;;;-0.69;100.00
56084;BME280;41958;52.416;13.428;2023-02-16T03:45:16;101690.59;;;-0.71;100.00
56084;BME280;41958;52.416;13.428;2023-02-16T03:47:41;101685.88;;;-0.75;100.00
56084;BME280;41958;52.416;13.428;2023-02-16T03:50:09;101689.13;;;-0.78;100.00
56084;BME280;41958;52.416;13.428;2023-02-16T03:52:37;101697.69;;;-0.75;100.00
56084;BME280;41958;52.416;13.428;2023-02-16T03:55:03;101689.44;;;-0.75;100.00
56084;BME280;41958;52.416;13.428;2023-02-16T03:57:28;101686.53;;;-0.68;100.00
56084;BME280;41958;52.416;13.428;2023-02-16T03:59:53;101683.06;;;-0.63;100.00
56084;BME280;41958;52.416;13.428;2023-02-16T04:02:19;101670.56;;;-0.71;100.00
56084;BME280;41958;52.416;13.428;2023-02-16T04:04:44;101684.94;;;-0.64;100.00
56084;BME280;41958;52.416;13.428;2023-02-16T04:07:10;101682.72;;;-0.67;100.00
56084;BME280;41958;52.416;13.428;2023-02-16T04:09:35;101678.00;;;-0.72;100.00
56084;BME280;41958;52.416;13.428;2023-02-16T04:12:00;101686.88;;;-0.64;100.00
56084;BME280;41958;52.416;13.428;2023-02-16T04:14:44;101687.22;;;-0.61;100.00
56084;BME280;41958;52.416;13.428;2023-02-16T04:17:09;101683.97;;;-0.58;100.00
56084;BME280;41958;52.416;13.428;2023-02-16T04:19:34;101679.03;;;-0.56;100.00
56084;BME280;41958;52.416;13.428;2023-02-16T04:21:59;101684.78;;;-0.57;100.00
56084;BME280;41958;52.416;13.428;2023-02-16T04:24:25;101683.97;;;-0.58;100.00
56084;BME280;41958;52.416;13.428;2023-02-16T04:26:50;101681.47;;;-0.59;100.00
56084;BME280;41958;52.416;13.428;2023-02-16T04:29:15;101682.19;;;-0.64;100.00
56084;BME280;41958;52.416;13.428;2023-02-16T04:31:40;101681.97;;;-0.62;100.00
56084;BME280;41958;52.416;13.428;2023-02-16T04:34:06;101680.31;;;-0.63;100.00
56084;BME280;41958;52.416;13.428;2023-02-16T04:36:31;101682.81;;;-0.62;100.00
56084;BME280;41958;52.416;13.428;2023-02-16T04:38:58;101686.09;;;-0.60;100.00
56084;BME280;41958;52.416;13.428;2023-02-16T04:41:23;101677.38;;;-0.57;100.00
56084;BME280;41958;52.416;13.428;2023-02-16T04:43:50;101683.13;;;-0.58;100.00
56084;BME280;41958;52.416;13.428;2023-02-16T04:46:15;101692.44;;;-0.59;100.00
56084;BME280;41958;52.416;13.428;2023-02-16T04:48:41;101674.56;;;-0.62;100.00
56084;BME280;41958;52.416;13.428;2023-02-16T04:51:06;101681.13;;;-0.63;100.00
56084;BME280;41958;52.416;13.428;2023-02-16T04:53:31;101678.91;;;-0.66;100.00
56084;BME280;41958;52.416;13.428;2023-02-16T04:55:56;101671.66;;;-0.72;100.00
56084;BME280;41958;52.416;13.428;2023-02-16T04:58:21;101672.16;;;-0.75;100.00
56084;BME280;41958;52.416;13.428;2023-02-16T05:00:47;101674.66;;;-0.74;100.00
56084;BME280;41958;52.416;13.428;2023-02-16T05:03:12;101663.09;;;-0.76;100.00
56084;BME280;41958;52.416;13.428;2023-02-16T05:05:38;101668.75;;;-0.82;100.00
56084;BME280;41958;52.416;13.428;2023-02-16T05:08:04;101664.59;;;-0.85;100.00
56084;BME280;41958;52.416;13.428;2023-02-16T05:10:29;101667.59;;;-0.87;100.00
56084;BME280;41958;52.416;13.428;2023-02-16T05:12:55;101668.69;;;-0.88;100.00
56084;BME280;41958;52.416;13.428;2023-02-16T05:15:39;101668.34;;;-0.91;100.00
56084;BME280;41958;52.416;13.428;2023-02-16T05:18:04;101673.56;;;-0.90;100.00
56084;BME280;41958;52.416;13.428;2023-02-16T05:20:29;101681.81;;;-0.90;100.00
56084;BME280;41958;52.416;13.428;2023-02-16T05:23:13;101679.00;;;-0.95;100.00
56084;BME280;41958;52.416;13.428;2023-02-16T05:25:38;101689.38;;;-0.97;100.00
56084;BME280;41958;52.416;13.428;2023-02-16T05:28:04;101695.13;;;-0.98;100.00
56084;BME280;41958;52.416;13.428;2023-02-16T05:30:29;101696.78;;;-0.97;100.00
56084;BME280;41958;52.416;13.428;2023-02-16T05:32:55;101695.38;;;-1.00;100.00
56084;BME280;41958;52.416;13.428;2023-02-16T05:35:20;101696.19;;;-0.99;100.00
56084;BME280;41958;52.416;13.428;2023-02-16T05:37:45;101699.19;;;-1.01;100.00
56084;BME280;41958;52.416;13.428;2023-02-16T05:40:11;101693.94;;;-1.03;100.00
56084;BME280;41958;52.416;13.428;2023-02-16T05:42:36;101680.47;;;-1.04;100.00
56084;BME280;41958;52.416;13.428;2023-02-16T05:45:01;101686.44;;;-1.07;100.00
56084;BME280;41958;52.416;13.428;2023-02-16T05:47:27;101688.47;;;-1.03;100.00
56084;BME280;41958;52.416;13.428;2023-02-16T05:49:53;101679.41;;;-1.03;100.00
56084;BME280;41958;52.416;13.428;2023-02-16T05:52:18;101677.75;;;-1.04;100.00
56084;BME280;41958;52.416;13.428;2023-02-16T05:54:43;101678.00;;;-1.06;100.00
56084;BME280;41958;52.416;13.428;2023-02-16T05:57:08;101686.69;;;-1.09;100.00
56084;BME280;41958;52.416;13.428;2023-02-16T05:59:34;101687.88;;;-1.05;100.00
56084;BME280;41958;52.416;13.428;2023-02-16T06:01:59;101694.44;;;-1.06;100.00
56084;BME280;41958;52.416;13.428;2023-02-16T06:04:24;101703.16;;;-1.09;100.00
56084;BME280;41958;52.416;13.428;2023-02-16T06:06:49;101701.66;;;-1.16;100.00
56084;BME280;41958;52.416;13.428;2023-02-16T06:09:15;101707.41;;;-1.18;100.00
56084;BME280;41958;52.416;13.428;2023-02-16T06:11:40;101712.03;;;-1.19;100.00
56084;BME280;41958;52.416;13.428;2023-02-16T06:14:14;101703.81;;;-1.19;100.00
56084;BME280;41958;52.416;13.428;2023-02-16T06:16:42;101707.16;;;-1.16;100.00
56084;BME280;41958;52.416;13.428;2023-02-16T06:19:09;101713.56;;;-1.11;100.00
56084;BME280;41958;52.416;13.428;2023-02-16T06:21:35;101696.09;;;-1.05;100.00
56084;BME280;41958;52.416;13.428;2023-02-16T06:24:00;101695.88;;;-1.03;100.00
56084;BME280;41958;52.416;13.428;2023-02-16T06:26:25;101697.59;;;-0.97;100.00
56084;BME280;41958;52.416;13.428;2023-02-16T06:28:51;101703.69;;;-0.95;100.00
56084;BME280;41958;52.416;13.428;2023-02-16T06:31:16;101699.44;;;-0.86;100.00
56084;BME280;41958;52.416;13.428;2023-02-16T06:33:42;101709.59;;;-0.86;100.00
56084;BME280;41958;52.416;13.428;2023-02-16T06:36:07;101705.50;;;-0.83;100.00
56084;BME280;41958;52.416;13.428;2023-02-16T06:38:33;101705.69;;;-0.73;100.00
56084;BME280;41958;52.416;13.428;2023-02-16T06:40:58;101704.03;;;-0.74;100.00
56084;BME280;41958;52.416;13.428;2023-02-16T06:43:24;101709.81;;;-0.71;100.00
56084;BME280;41958;52.416;13.428;2023-02-16T06:45:50;101710.97;;;-0.66;100.00
56084;BME280;41958;52.416;13.428;2023-02-16T06:48:15;101716.56;;;-0.61;100.00
56084;BME280;41958;52.416;13.428;2023-02-16T06:50:40;101716.09;;;-0.58;100.00
56084;BME280;41958;52.416;13.428;2023-02-16T06:53:05;101720.47;;;-0.57;100.00
56084;BME280;41958;52.416;13.428;2023-02-16T06:55:31;101717.47;;;-0.56;100.00
56084;BME280;41958;52.416;13.428;2023-02-16T06:58:03;101709.50;;;-0.57;100.00
56084;BME280;41958;52.416;13.428;2023-02-16T07:00:29;101716.72;;;-0.51;100.00
56084;BME280;41958;52.416;13.428;2023-02-16T07:02:54;101717.06;;;-0.47;100.00
56084;BME280;41958;52.416;13.428;2023-02-16T07:05:19;101720.38;;;-0.45;100.00
56084;BME280;41958;52.416;13.428;2023-02-16T07:07:45;101713.56;;;-0.43;100.00
56084;BME280;41958;52.416;13.428;2023-02-16T07:10:10;101707.91;;;-0.36;100.00
56084;BME280;41958;52.416;13.428;2023-02-16T07:12:35;101711.53;;;-0.30;100.00
56084;BME280;41958;52.416;13.428;2023-02-16T07:15:00;101709.13;;;-0.27;100.00
56084;BME280;41958;52.416;13.428;2023-02-16T07:17:26;101713.03;;;-0.23;100.00
56084;BME280;41958;52.416;13.428;2023-02-16T07:19:51;101713.94;;;-0.17;100.00
56084;BME280;41958;52.416;13.428;2023-02-16T07:22:16;101715.69;;;-0.11;100.00
56084;BME280;41958;52.416;13.428;2023-02-16T07:24:42;101719.06;;;-0.04;100.00
56084;BME280;41958;52.416;13.428;2023-02-16T07:27:07;101701.53;;;0.03;100.00
56084;BME280;41958;52.416;13.428;2023-02-16T07:29:33;101721.69;;;0.08;100.00
56084;BME280;41958;52.416;13.428;2023-02-16T07:31:58;101699.44;;;0.10;100.00
56084;BME280;41958;52.416;13.428;2023-02-16T07:34:23;101718.75;;;0.37;100.00
56084;BME280;41958;52.416;13.428;2023-02-16T07:36:48;101715.22;;;0.42;100.00
56084;BME280;41958;52.416;13.428;2023-02-16T07:39:14;101706.81;;;0.54;100.00
56084;BME280;41958;52.416;13.428;2023-02-16T07:41:39;101707.44;;;0.61;100.00
56084;BME280;41958;52.416;13.428;2023-02-16T07:44:05;101710.00;;;0.67;100.00
56084;BME280;41958;52.416;13.428;2023-02-16T07:46:30;101707.34;;;0.78;100.00
56084;BME280;41958;52.416;13.428;2023-02-16T07:48:55;101714.88;;;0.88;100.00
56084;BME280;41958;52.416;13.428;2023-02-16T07:51:24;101709.47;;;0.98;100.00
56084;BME280;41958;52.416;13.428;2023-02-16T07:53:51;101703.75;;;1.05;100.00
56084;BME280;41958;52.416;13.428;2023-02-16T07:56:21;101705.81;;;1.20;100.00
56084;BME280;41958;52.416;13.428;2023-02-16T07:58:47;101702.25;;;1.24;100.00
56084;BME280;41958;52.416;13.428;2023-02-16T08:01:12;101707.38;;;1.43;100.00
56084;BME280;41958;52.416;13.428;2023-02-16T08:03:39;101710.22;;;1.58;100.00
56084;BME280;41958;52.416;13.428;2023-02-16T08:06:06;101705.63;;;1.74;100.00
56084;BME280;41958;52.416;13.428;2023-02-16T08:08:31;101696.28;;;1.80;100.00
56084;BME280;41958;52.416;13.428;2023-02-16T08:10:57;101707.38;;;1.91;100.00
56084;BME280;41958;52.416;13.428;2023-02-16T08:13:22;101709.09;;;1.97;100.00
56084;BME280;41958;52.416;13.428;2023-02-16T08:15:47;101714.66;;;2.12;100.00
56084;BME280;41958;52.416;13.428;2023-02-16T08:18:12;101713.59;;;2.24;100.00
56084;BME280;41958;52.416;13.428;2023-02-16T08:20:38;101714.50;;;2.40;100.00
56084;BME280;41958;52.416;13.428;2023-02-16T08:23:03;101711.81;;;2.55;100.00
56084;BME280;41958;52.416;13.428;2023-02-16T08:25:32;101722.25;;;2.53;100.00
56084;BME280;41958;52.416;13.428;2023-02-16T08:27:57;101722.03;;;2.65;100.00
56084;BME280;41958;52.416;13.428;2023-02-16T08:30:22;101728.09;;;2.67;99.71
56084;BME280;41958;52.416;13.428;2023-02-16T08:32:49;101733.66;;;2.77;99.78
56084;BME280;41958;52.416;13.428;2023-02-16T08:35:15;101727.31;;;2.87;99.25
56084;BME280;41958;52.416;13.428;2023-02-16T08:37:40;101727.59;;;2.91;98.17
56084;BME280;41958;52.416;13.428;2023-02-16T08:40:07;101721.25;;;3.00;97.55
56084;BME280;41958;52.416;13.428;2023-02-16T08:42:33;101724.03;;;3.21;98.14
56084;BME280;41958;52.416;13.428;2023-02-16T08:44:58;101717.69;;;3.36;98.41
56084;BME280;41958;52.416;13.428;2023-02-16T08:47:23;101719.34;;;3.37;96.15
56084;BME280;41958;52.416;13.428;2023-02-16T08:49:49;101714.31;;;3.65;96.82
56084;BME280;41958;52.416;13.428;2023-02-16T08:52:14;101708.22;;;3.83;96.41
56084;BME280;41958;52.416;13.428;2023-02-16T08:54:39;101712.34;;;3.96;95.81
56084;BME280;41958;52.416;13.428;2023-02-16T08:57:05;101701.22;;;4.07;94.68
56084;BME280;41958;52.416;13.428;2023-02-16T08:59:30;101700.09;;;4.13;94.07
56084;BME280;41958;52.416;13.428;2023-02-16T09:01:58;101705.59;;;4.23;92.27
56084;BME280;41958;52.416;13.428;2023-02-16T09:04:24;101705.25;;;4.40;93.05
56084;BME280;41958;52.416;13.428;2023-02-16T09:06:50;101700.47;;;4.56;92.79
56084;BME280;41958;52.416;13.428;2023-02-16T09:09:17;101700.19;;;4.58;91.30
56084;BME280;41958;52.416;13.428;2023-02-16T09:11:42;101701.47;;;4.70;90.67
56084;BME280;41958;52.416;13.428;2023-02-16T09:14:07;101700.16;;;4.63;89.22
56084;BME280;41958;52.416;13.428;2023-02-16T09:16:34;101700.91;;;4.73;89.29
56084;BME280;41958;52.416;13.428;2023-02-16T09:19:03;101704.94;;;4.92;89.17
56084;BME280;41958;52.416;13.428;2023-02-16T09:21:29;101699.84;;;5.09;88.87
56084;BME280;41958;52.416;13.428;2023-02-16T09:24:00;101693.03;;;5.26;89.06
56084;BME280;41958;52.416;13.428;2023-02-16T09:26:26;101692.09;;;5.40;89.12
56084;BME280;41958;52.416;13.428;2023-02-16T09:28:54;101699.38;;;5.61;87.74
56084;BME280;41958;52.416;13.428;2023-02-16T09:31:23;101700.63;;;5.73;86.38
56084;BME280;41958;52.416;13.428;2023-02-16T09:33:51;101694.34;;;5.92;87.40
56084;BME280;41958;52.416;13.428;2023-02-16T09:36:17;101693.97;;;6.04;86.04
56084;BME280;41958;52.416;13.428;2023-02-16T09:38:43;101691.75;;;6.01;83.78
56084;BME280;41958;52.416;13.428;2023-02-16T09:44:12;101686.53;;;6.43;81.72
56084;BME280;41958;52.416;13.428;2023-02-16T09:46:41;101694.72;;;6.53;82.50
56084;BME280;41958;52.416;13.428;2023-02-16T09:49:22;101693.06;;;6.52;80.77
56084;BME280;41958;52.416;13.428;2023-02-16T09:51:55;101693.81;;;6.77;80.69
56084;BME280;41958;52.416;13.428;2023-02-16T09:57:05;101696.66;;;7.09;78.27
56084;BME280;41958;52.416;13.428;2023-02-16T09:59:48;101691.97;;;7.24;77.65
56084;BME280;41958;52.416;13.428;2023-02-16T10:02:29;101683.22;;;7.31;76.88
56084;BME280;41958;52.416;13.428;2023-02-16T10:05:42;101684.66;;;7.61;77.21
56084;BME280;41958;52.416;13.428;2023-02-16T10:11:07;101683.47;;;7.95;75.00
56084;BME280;41958;52.416;13.428;2023-02-16T10:14:03;101685.53;;;8.03;73.16
56084;BME280;41958;52.416;13.428;2023-02-16T10:16:37;101689.94;;;8.18;73.92
56084;BME280;41958;52.416;13.428;2023-02-16T10:19:07;101686.34;;;8.32;74.19
56084;BME280;41958;52.416;13.428;2023-02-16T10:21:38;101695.41;;;8.51;72.52
56084;BME280;41958;52.416;13.428;2023-02-16T10:24:10;101689.28;;;8.63;70.21
56084;BME280;41958;52.416;13.428;2023-02-16T10:26:41;101687.75;;;8.71;69.60
56084;BME280;41958;52.416;13.428;2023-02-16T10:29:16;101694.13;;;8.71;69.22
56084;BME280;41958;52.416;13.428;2023-02-16T10:34:29;101690.75;;;8.60;69.93
56084;BME280;41958;52.416;13.428;2023-02-16T10:37:10;101685.59;;;8.54;71.26
56084;BME280;41958;52.416;13.428;2023-02-16T10:40:00;101691.97;;;8.68;70.52
56084;BME280;41958;52.416;13.428;2023-02-16T10:42:45;101688.63;;;8.80;69.43
56084;BME280;41958;52.416;13.428;2023-02-16T10:48:10;101680.25;;;8.80;69.80
56084;BME280;41958;52.416;13.428;2023-02-16T10:50:39;101680.41;;;8.75;69.80
56084;BME280;41958;52.416;13.428;2023-02-16T10:53:09;101681.59;;;8.83;69.18
56084;BME280;41958;52.416;13.428;2023-02-16T10:55:37;101671.78;;;8.85;69.07
56084;BME280;41958;52.416;13.428;2023-02-16T10:58:03;101670.97;;;8.85;68.86
56084;BME280;41958;52.416;13.428;2023-02-16T11:00:39;101668.44;;;8.97;68.65
56084;BME280;41958;52.416;13.428;2023-02-16T11:03:11;101665.09;;;9.09;69.05
56084;BME280;41958;52.416;13.428;2023-02-16T11:05:38;101664.00;;;9.19;67.65
56084;BME280;41958;52.416;13.428;2023-02-16T11:08:06;101656.97;;;9.21;67.54
56084;BME280;41958;52.416;13.428;2023-02-16T11:13:09;101656.50;;;9.28;67.57
56084;BME280;41958;52.416;13.428;2023-02-16T11:15:41;101650.97;;;9.37;66.98
56084;BME280;41958;52.416;13.428;2023-02-16T11:18:24;101651.97;;;9.41;66.92
56084;BME280;41958;52.416;13.428;2023-02-16T11:20:53;101651.41;;;9.53;67.14
56084;BME280;41958;52.416;13.428;2023-02-16T11:23:30;101652.22;;;9.53;66.67
56084;BME280;41958;52.416;13.428;2023-02-16T11:26:20;101652.22;;;9.53;67.92
56084;BME280;41958;52.416;13.428;2023-02-16T11:28:48;101654.66;;;9.46;66.77
56084;BME280;41958;52.416;13.428;2023-02-16T11:31:24;101659.03;;;9.38;67.87
56084;BME280;41958;52.416;13.428;2023-02-16T11:33:57;101653.97;;;9.40;67.52
56084;BME280;41958;52.416;13.428;2023-02-16T11:36:33;101649.66;;;9.34;68.53
56084;BME280;41958;52.416;13.428;2023-02-16T11:39:04;101638.00;;;9.32;67.49
56084;BME280;41958;52.416;13.428;2023-02-16T11:41:31;101634.47;;;9.49;67.38
56084;BME280;41958;52.416;13.428;2023-02-16T11:43:58;101625.75;;;9.51;66.82
56084;BME280;41958;52.416;13.428;2023-02-16T11:46:24;101631.94;;;9.70;67.09
56084;BME280;41958;52.416;13.428;2023-02-16T11:48:50;101623.91;;;9.69;67.11
56084;BME280;41958;52.416;13.428;2023-02-16T11:51:29;101630.28;;;9.69;65.42
56084;BME280;41958;52.416;13.428;2023-02-16T11:54:04;101626.84;;;9.72;65.59
56084;BME280;41958;52.416;13.428;2023-02-16T11:56:33;101624.44;;;9.79;65.34
56084;BME280;41958;52.416;13.428;2023-02-16T11:59:19;101611.63;;;9.78;66.31
56084;BME280;41958;52.416;13.428;2023-02-16T12:02:01;101614.75;;;9.86;67.28
56084;BME280;41958;52.416;13.428;2023-02-16T12:05:01;101607.38;;;9.90;64.96
56084;BME280;41958;52.416;13.428;2023-02-16T12:07:42;101616.25;;;9.92;64.50
56084;BME280;41958;52.416;13.428;2023-02-16T12:10:24;101614.31;;;10.01;64.63
56084;BME280;41958;52.416;13.428;2023-02-16T12:13:17;101606.91;;;9.96;66.53
56084;BME280;41958;52.416;13.428;2023-02-16T12:19:23;101598.38;;;10.02;64.04
56084;BME280;41958;52.416;13.428;2023-02-16T12:22:08;101600.19;;;10.06;63.39
56084;BME280;41958;52.416;13.428;2023-02-16T12:24:49;101599.03;;;10.07;63.51
56084;BME280;41958;52.416;13.428;2023-02-16T12:27:41;101606.75;;;10.10;62.79
56084;BME280;41958;52.416;13.428;2023-02-16T12:33:34;101591.00;;;10.15;63.14
56084;BME280;41958;52.416;13.428;2023-02-16T12:36:18;101590.69;;;10.25;62.58
56084;BME280;41958;52.416;13.428;2023-02-16T12:39:04;101583.16;;;10.34;62.62
56084;BME280;41958;52.416;13.428;2023-02-16T12:41:43;101581.66;;;10.28;61.84
56084;BME280;41958;52.416;13.428;2023-02-16T12:44:28;101577.25;;;10.36;61.42
56084;BME280;41958;52.416;13.428;2023-02-16T12:47:04;101585.31;;;10.37;61.13
56084;BME280;41958;52.416;13.428;2023-02-16T12:49:50;101580.88;;;10.54;61.01
56084;BME280;41958;52.416;13.428;2023-02-16T12:52:20;101589.94;;;10.59;61.24
56084;BME280;41958;52.416;13.428;2023-02-16T12:54:54;101576.25;;;10.58;61.07
56084;BME280;41958;52.416;13.428;2023-02-16T12:57:23;101580.22;;;10.66;61.31
56084;BME280;41958;52.416;13.428;2023-02-16T13:00:20;101584.50;;;10.72;61.13
56084;BME280;41958;52.416;13.428;2023-02-16T13:03:06;101584.97;;;10.74;60.20
56084;BME280;41958;52.416;13.428;2023-02-16T13:05:36;101570.66;;;10.84;61.40
56084;BME280;41958;52.416;13.428;2023-02-16T13:08:14;101575.09;;;10.76;61.39
56084;BME280;41958;52.416;13.428;2023-02-16T13:11:06;101565.91;;;10.76;60.37
56084;BME280;41958;52.416;13.428;2023-02-16T13:13:34;101562.75;;;10.86;60.57
56084;BME280;41958;52.416;13.428;2023-02-16T13:16:14;101554.03;;;10.88;61.86
56084;BME280;41958;52.416;13.428;2023-02-16T13:18:42;101550.09;;;10.89;59.52
56084;BME280;41958;52.416;13.428;2023-02-16T13:21:24;101557.31;;;10.90;61.91
56084;BME280;41958;52.416;13.428;2023-02-16T13:24:30;101557.47;;;11.02;59.65
56084;BME280;41958;52.416;13.428;2023-02-16T13:32:55;101555.13;;;11.13;59.85
56084;BME280;41958;52.416;13.428;2023-02-16T13:35:59;101553.13;;;11.13;59.21
56084;BME280;41958;52.416;13.428;2023-02-16T13:41:40;101545.69;;;11.26;58.43
56084;BME280;41958;52.416;13.428;2023-02-16T13:44:13;101535.84;;;11.20;59.01
56084;BME280;41958;52.416;13.428;2023-02-16T13:46:49;101538.47;;;11.25;59.34
56084;BME280;41958;52.416;13.428;2023-02-16T13:49:32;101535.19;;;11.14;60.83